To NAV CANADA Home Page Login to a new session Search on AWWS site Feedback and Comments Disclaimer Vers la page française équivalente Tips FAQ What's new on the site To the Forecasts and Observations / NOTAM section To "File a Flight Plan" website Publications and other links Update of the User's profile FIC Telephone Numbers My Weather Data Folder Route Weather Data Regional Weather Data Local Weather Data To the Forecasts and Observations / NOTAM section
Request Generated 06/26/2017 at 22:33:56 UTC . Weather information available at that time is displayed.

METAR/TAF

PAULATUK/PAULATUK (NORA ALIQATCHIALUK RUBEN)/NT    

LWIS CYPC 262200Z AUTO 30007KT 12/07 A2972=
LWIS CYPC 262100Z AUTO 28004KT 230V300 12/07 A2973=
LWIS CYPC 262000Z AUTO 04003KT 350V070 14/06 A2973=

TAF CYPC 261838Z 2619/2623 FCST NOT AVBL DUE NO OBS
RMK NXT FCST WILL BE ISSUED AT 271445Z=
Your time UTC time
Weather data provided by Environment Canada and NAV CANADA